sensor_id;sensor_type;location;lat;lon;timestamp;P1;durP1;ratioP1;P2;durP2;ratioP2
43070;SDS011;36278;47.952;21.714;2022-12-18T00:01:12;43.37;;;25.67;;
43070;SDS011;36278;47.952;21.714;2022-12-18T00:03:41;44.53;;;25.40;;
43070;SDS011;36278;47.952;21.714;2022-12-18T00:06:08;46.63;;;25.43;;
43070;SDS011;36278;47.952;21.714;2022-12-18T00:08:34;42.90;;;24.17;;
43070;SDS011;36278;47.952;21.714;2022-12-18T00:11:07;48.73;;;25.73;;
43070;SDS011;36278;47.952;21.714;2022-12-18T00:13:34;43.07;;;24.27;;
43070;SDS011;36278;47.952;21.714;2022-12-18T00:16:04;44.70;;;25.50;;
43070;SDS011;36278;47.952;21.714;2022-12-18T00:18:32;47.30;;;26.92;;
43070;SDS011;36278;47.952;21.714;2022-12-18T00:20:59;44.53;;;25.40;;
43070;SDS011;36278;47.952;21.714;2022-12-18T00:23:29;46.73;;;24.77;;
43070;SDS011;36278;47.952;21.714;2022-12-18T00:25:58;44.40;;;24.73;;
43070;SDS011;36278;47.952;21.714;2022-12-18T00:28:24;43.83;;;24.70;;
43070;SDS011;36278;47.952;21.714;2022-12-18T00:30:50;45.77;;;25.00;;
43070;SDS011;36278;47.952;21.714;2022-12-18T00:33:16;44.70;;;25.83;;
43070;SDS011;36278;47.952;21.714;2022-12-18T00:35:42;42.47;;;24.27;;
43070;SDS011;36278;47.952;21.714;2022-12-18T00:38:08;42.80;;;25.40;;
43070;SDS011;36278;47.952;21.714;2022-12-18T00:40:34;44.87;;;24.73;;
43070;SDS011;36278;47.952;21.714;2022-12-18T00:42:59;50.93;;;26.50;;
43070;SDS011;36278;47.952;21.714;2022-12-18T00:45:29;46.77;;;27.27;;
43070;SDS011;36278;47.952;21.714;2022-12-18T00:47:56;48.57;;;25.83;;
43070;SDS011;36278;47.952;21.714;2022-12-18T00:50:22;50.93;;;26.60;;
43070;SDS011;36278;47.952;21.714;2022-12-18T00:52:49;43.23;;;24.93;;
43070;SDS011;36278;47.952;21.714;2022-12-18T00:55:15;45.00;;;26.70;;
43070;SDS011;36278;47.952;21.714;2022-12-18T00:57:41;47.83;;;26.37;;
43070;SDS011;36278;47.952;21.714;2022-12-18T01:00:07;49.27;;;25.57;;
43070;SDS011;36278;47.952;21.714;2022-12-18T01:02:35;46.07;;;24.80;;
43070;SDS011;36278;47.952;21.714;2022-12-18T01:05:00;50.70;;;27.20;;
43070;SDS011;36278;47.952;21.714;2022-12-18T01:07:26;49.87;;;27.37;;
43070;SDS011;36278;47.952;21.714;2022-12-18T01:09:51;47.90;;;26.20;;
43070;SDS011;36278;47.952;21.714;2022-12-18T01:12:17;52.50;;;28.37;;
43070;SDS011;36278;47.952;21.714;2022-12-18T01:14:42;47.07;;;27.60;;
43070;SDS011;36278;47.952;21.714;2022-12-18T01:17:08;51.37;;;28.33;;
43070;SDS011;36278;47.952;21.714;2022-12-18T01:19:33;51.67;;;26.60;;
43070;SDS011;36278;47.952;21.714;2022-12-18T01:21:59;50.57;;;28.87;;
43070;SDS011;36278;47.952;21.714;2022-12-18T01:24:24;59.57;;;29.90;;
43070;SDS011;36278;47.952;21.714;2022-12-18T01:26:50;52.97;;;28.63;;
43070;SDS011;36278;47.952;21.714;2022-12-18T01:29:15;54.07;;;30.10;;
43070;SDS011;36278;47.952;21.714;2022-12-18T01:31:41;52.73;;;28.53;;
43070;SDS011;36278;47.952;21.714;2022-12-18T01:34:06;57.10;;;28.93;;
43070;SDS011;36278;47.952;21.714;2022-12-18T01:36:33;53.03;;;29.10;;
43070;SDS011;36278;47.952;21.714;2022-12-18T01:39:00;53.53;;;28.90;;
43070;SDS011;36278;47.952;21.714;2022-12-18T01:41:28;54.63;;;29.33;;
43070;SDS011;36278;47.952;21.714;2022-12-18T01:52:36;57.23;;;30.73;;
43070;SDS011;36278;47.952;21.714;2022-12-18T01:55:10;57.40;;;29.40;;
43070;SDS011;36278;47.952;21.714;2022-12-18T01:57:37;56.97;;;29.37;;
43070;SDS011;36278;47.952;21.714;2022-12-18T02:00:08;58.07;;;30.83;;
43070;SDS011;36278;47.952;21.714;2022-12-18T02:02:36;56.70;;;32.23;;
43070;SDS011;36278;47.952;21.714;2022-12-18T02:05:02;61.90;;;30.50;;
43070;SDS011;36278;47.952;21.714;2022-12-18T02:09:59;62.73;;;32.07;;
43070;SDS011;36278;47.952;21.714;2022-12-18T02:12:42;63.20;;;32.07;;
43070;SDS011;36278;47.952;21.714;2022-12-18T02:15:39;61.10;;;31.43;;
43070;SDS011;36278;47.952;21.714;2022-12-18T02:18:14;64.20;;;33.20;;
43070;SDS011;36278;47.952;21.714;2022-12-18T02:29:26;63.77;;;33.13;;
43070;SDS011;36278;47.952;21.714;2022-12-18T02:31:56;58.78;;;31.70;;
43070;SDS011;36278;47.952;21.714;2022-12-18T02:34:32;66.60;;;33.50;;
43070;SDS011;36278;47.952;21.714;2022-12-18T02:37:03;58.70;;;31.87;;
43070;SDS011;36278;47.952;21.714;2022-12-18T02:39:31;66.70;;;33.73;;
43070;SDS011;36278;47.952;21.714;2022-12-18T02:41:59;60.87;;;31.63;;
43070;SDS011;36278;47.952;21.714;2022-12-18T02:44:27;66.67;;;33.17;;
43070;SDS011;36278;47.952;21.714;2022-12-18T02:46:53;60.27;;;32.37;;
43070;SDS011;36278;47.952;21.714;2022-12-18T02:51:48;63.67;;;32.70;;
43070;SDS011;36278;47.952;21.714;2022-12-18T02:54:28;61.13;;;33.43;;
43070;SDS011;36278;47.952;21.714;2022-12-18T02:57:03;63.23;;;33.00;;
43070;SDS011;36278;47.952;21.714;2022-12-18T02:59:39;68.83;;;34.07;;
43070;SDS011;36278;47.952;21.714;2022-12-18T03:02:21;66.63;;;33.40;;
43070;SDS011;36278;47.952;21.714;2022-12-18T03:10:13;62.23;;;32.73;;
43070;SDS011;36278;47.952;21.714;2022-12-18T03:12:44;66.60;;;34.33;;
43070;SDS011;36278;47.952;21.714;2022-12-18T03:15:19;60.33;;;32.43;;
43070;SDS011;36278;47.952;21.714;2022-12-18T03:17:51;63.97;;;33.10;;
43070;SDS011;36278;47.952;21.714;2022-12-18T03:20:22;65.22;;;34.35;;
43070;SDS011;36278;47.952;21.714;2022-12-18T03:22:52;63.63;;;31.30;;
43070;SDS011;36278;47.952;21.714;2022-12-18T03:25:22;66.83;;;33.53;;
43070;SDS011;36278;47.952;21.714;2022-12-18T03:27:51;64.10;;;33.07;;
43070;SDS011;36278;47.952;21.714;2022-12-18T03:30:21;64.33;;;33.67;;
43070;SDS011;36278;47.952;21.714;2022-12-18T03:32:50;60.93;;;32.60;;
43070;SDS011;36278;47.952;21.714;2022-12-18T03:35:22;62.23;;;34.33;;
43070;SDS011;36278;47.952;21.714;2022-12-18T03:37:53;62.67;;;32.77;;
43070;SDS011;36278;47.952;21.714;2022-12-18T03:40:20;72.27;;;35.27;;
43070;SDS011;36278;47.952;21.714;2022-12-18T03:42:52;68.05;;;33.95;;
43070;SDS011;36278;47.952;21.714;2022-12-18T03:45:27;65.90;;;33.77;;
43070;SDS011;36278;47.952;21.714;2022-12-18T03:48:04;70.60;;;34.88;;
43070;SDS011;36278;47.952;21.714;2022-12-18T03:51:08;72.83;;;35.10;;
43070;SDS011;36278;47.952;21.714;2022-12-18T03:56:20;72.00;;;36.03;;
43070;SDS011;36278;47.952;21.714;2022-12-18T03:58:50;69.03;;;33.97;;
43070;SDS011;36278;47.952;21.714;2022-12-18T04:01:19;71.83;;;35.67;;
43070;SDS011;36278;47.952;21.714;2022-12-18T04:03:48;71.13;;;35.50;;
43070;SDS011;36278;47.952;21.714;2022-12-18T04:06:15;66.73;;;34.83;;
43070;SDS011;36278;47.952;21.714;2022-12-18T04:08:41;67.23;;;35.07;;
43070;SDS011;36278;47.952;21.714;2022-12-18T04:11:08;72.40;;;35.97;;
43070;SDS011;36278;47.952;21.714;2022-12-18T04:13:37;73.17;;;36.90;;
43070;SDS011;36278;47.952;21.714;2022-12-18T04:16:03;73.37;;;33.90;;
43070;SDS011;36278;47.952;21.714;2022-12-18T04:18:29;74.07;;;37.20;;
43070;SDS011;36278;47.952;21.714;2022-12-18T04:20:55;72.70;;;35.87;;
43070;SDS011;36278;47.952;21.714;2022-12-18T04:23:20;74.67;;;37.10;;
43070;SDS011;36278;47.952;21.714;2022-12-18T04:25:46;74.13;;;36.70;;
43070;SDS011;36278;47.952;21.714;2022-12-18T04:28:12;72.50;;;36.77;;
43070;SDS011;36278;47.952;21.714;2022-12-18T04:30:38;75.27;;;37.47;;
43070;SDS011;36278;47.952;21.714;2022-12-18T04:33:05;73.43;;;36.10;;
43070;SDS011;36278;47.952;21.714;2022-12-18T04:35:34;74.00;;;36.97;;
43070;SDS011;36278;47.952;21.714;2022-12-18T04:37:59;75.73;;;36.97;;
43070;SDS011;36278;47.952;21.714;2022-12-18T04:40:25;69.67;;;35.97;;
43070;SDS011;36278;47.952;21.714;2022-12-18T04:42:50;69.30;;;36.70;;
43070;SDS011;36278;47.952;21.714;2022-12-18T04:45:16;76.60;;;36.57;;
43070;SDS011;36278;47.952;21.714;2022-12-18T04:47:41;73.40;;;36.30;;
43070;SDS011;36278;47.952;21.714;2022-12-18T04:50:07;77.63;;;37.07;;
43070;SDS011;36278;47.952;21.714;2022-12-18T04:52:33;70.50;;;35.53;;
43070;SDS011;36278;47.952;21.714;2022-12-18T04:54:58;72.17;;;35.77;;
43070;SDS011;36278;47.952;21.714;2022-12-18T04:57:24;77.47;;;37.80;;
43070;SDS011;36278;47.952;21.714;2022-12-18T04:59:49;74.20;;;36.30;;
43070;SDS011;36278;47.952;21.714;2022-12-18T05:02:14;77.67;;;36.77;;
43070;SDS011;36278;47.952;21.714;2022-12-18T05:04:40;75.23;;;37.17;;
43070;SDS011;36278;47.952;21.714;2022-12-18T05:07:05;75.93;;;36.03;;
43070;SDS011;36278;47.952;21.714;2022-12-18T05:09:31;84.30;;;38.43;;
43070;SDS011;36278;47.952;21.714;2022-12-18T05:11:56;76.73;;;36.50;;
43070;SDS011;36278;47.952;21.714;2022-12-18T05:14:22;82.20;;;36.07;;
43070;SDS011;36278;47.952;21.714;2022-12-18T05:16:48;82.03;;;36.43;;
43070;SDS011;36278;47.952;21.714;2022-12-18T05:19:13;80.37;;;35.77;;
43070;SDS011;36278;47.952;21.714;2022-12-18T05:21:39;84.23;;;36.60;;
43070;SDS011;36278;47.952;21.714;2022-12-18T05:24:04;88.63;;;35.80;;
43070;SDS011;36278;47.952;21.714;2022-12-18T05:26:30;82.93;;;36.33;;
43070;SDS011;36278;47.952;21.714;2022-12-18T05:28:55;90.30;;;38.90;;
43070;SDS011;36278;47.952;21.714;2022-12-18T05:31:21;85.77;;;36.03;;
43070;SDS011;36278;47.952;21.714;2022-12-18T05:33:50;88.27;;;36.50;;
43070;SDS011;36278;47.952;21.714;2022-12-18T05:36:15;87.67;;;38.27;;
43070;SDS011;36278;47.952;21.714;2022-12-18T05:38:41;85.67;;;35.27;;
43070;SDS011;36278;47.952;21.714;2022-12-18T05:41:06;86.90;;;35.27;;
43070;SDS011;36278;47.952;21.714;2022-12-18T05:43:34;91.43;;;36.73;;
43070;SDS011;36278;47.952;21.714;2022-12-18T05:46:04;86.87;;;37.20;;
43070;SDS011;36278;47.952;21.714;2022-12-18T05:48:31;87.63;;;35.67;;
43070;SDS011;36278;47.952;21.714;2022-12-18T05:51:02;92.93;;;35.37;;
43070;SDS011;36278;47.952;21.714;2022-12-18T05:53:29;90.30;;;35.97;;
43070;SDS011;36278;47.952;21.714;2022-12-18T05:55:54;79.27;;;35.47;;
43070;SDS011;36278;47.952;21.714;2022-12-18T05:58:24;88.63;;;36.40;;
43070;SDS011;36278;47.952;21.714;2022-12-18T06:00:49;82.80;;;33.77;;
43070;SDS011;36278;47.952;21.714;2022-12-18T06:03:15;91.77;;;35.70;;
43070;SDS011;36278;47.952;21.714;2022-12-18T06:05:41;87.40;;;35.57;;
43070;SDS011;36278;47.952;21.714;2022-12-18T06:08:09;85.17;;;34.33;;
43070;SDS011;36278;47.952;21.714;2022-12-18T06:10:35;82.90;;;35.03;;
43070;SDS011;36278;47.952;21.714;2022-12-18T06:13:01;85.30;;;34.03;;
43070;SDS011;36278;47.952;21.714;2022-12-18T06:15:26;85.27;;;36.17;;
43070;SDS011;36278;47.952;21.714;2022-12-18T06:17:52;91.83;;;34.80;;
43070;SDS011;36278;47.952;21.714;2022-12-18T06:20:18;92.83;;;36.40;;
43070;SDS011;36278;47.952;21.714;2022-12-18T06:22:44;81.57;;;32.70;;
43070;SDS011;36278;47.952;21.714;2022-12-18T06:25:09;91.77;;;35.30;;
43070;SDS011;36278;47.952;21.714;2022-12-18T06:27:35;87.63;;;35.27;;
43070;SDS011;36278;47.952;21.714;2022-12-18T06:30:01;89.67;;;35.30;;
43070;SDS011;36278;47.952;21.714;2022-12-18T06:32:27;94.53;;;34.77;;
43070;SDS011;36278;47.952;21.714;2022-12-18T06:34:52;89.40;;;35.43;;
43070;SDS011;36278;47.952;21.714;2022-12-18T06:37:18;83.53;;;34.37;;
43070;SDS011;36278;47.952;21.714;2022-12-18T06:39:44;83.50;;;34.70;;
43070;SDS011;36278;47.952;21.714;2022-12-18T06:42:09;87.13;;;36.80;;
43070;SDS011;36278;47.952;21.714;2022-12-18T06:44:35;94.60;;;37.77;;
43070;SDS011;36278;47.952;21.714;2022-12-18T06:47:00;94.53;;;36.83;;
43070;SDS011;36278;47.952;21.714;2022-12-18T06:49:26;85.47;;;33.80;;
43070;SDS011;36278;47.952;21.714;2022-12-18T06:51:51;94.93;;;36.70;;
43070;SDS011;36278;47.952;21.714;2022-12-18T06:54:17;95.53;;;37.03;;
43070;SDS011;36278;47.952;21.714;2022-12-18T06:56:44;90.17;;;35.27;;
43070;SDS011;36278;47.952;21.714;2022-12-18T06:59:10;90.30;;;35.15;;
43070;SDS011;36278;47.952;21.714;2022-12-18T07:01:39;92.03;;;37.03;;
43070;SDS011;36278;47.952;21.714;2022-12-18T07:04:04;94.63;;;35.63;;
43070;SDS011;36278;47.952;21.714;2022-12-18T07:06:29;82.17;;;32.37;;
43070;SDS011;36278;47.952;21.714;2022-12-18T07:08:55;87.80;;;35.37;;
43070;SDS011;36278;47.952;21.714;2022-12-18T07:11:20;115.03;;;55.80;;
43070;SDS011;36278;47.952;21.714;2022-12-18T07:13:46;84.67;;;33.40;;
43070;SDS011;36278;47.952;21.714;2022-12-18T07:16:18;91.97;;;34.13;;
43070;SDS011;36278;47.952;21.714;2022-12-18T07:18:45;86.55;;;34.35;;
43070;SDS011;36278;47.952;21.714;2022-12-18T07:21:12;86.03;;;34.53;;
43070;SDS011;36278;47.952;21.714;2022-12-18T07:23:39;84.33;;;33.43;;
43070;SDS011;36278;47.952;21.714;2022-12-18T07:26:06;84.30;;;34.53;;
43070;SDS011;36278;47.952;21.714;2022-12-18T07:28:36;91.53;;;34.40;;
43070;SDS011;36278;47.952;21.714;2022-12-18T07:31:07;85.37;;;32.30;;
43070;SDS011;36278;47.952;21.714;2022-12-18T07:33:34;86.83;;;33.40;;
43070;SDS011;36278;47.952;21.714;2022-12-18T07:36:00;80.30;;;31.57;;
43070;SDS011;36278;47.952;21.714;2022-12-18T07:38:30;83.37;;;32.63;;
43070;SDS011;36278;47.952;21.714;2022-12-18T07:41:02;82.63;;;33.73;;
43070;SDS011;36278;47.952;21.714;2022-12-18T07:45:54;80.37;;;31.20;;
43070;SDS011;36278;47.952;21.714;2022-12-18T07:48:19;85.20;;;33.50;;
43070;SDS011;36278;47.952;21.714;2022-12-18T07:50:45;76.97;;;29.00;;
43070;SDS011;36278;47.952;21.714;2022-12-18T07:53:10;79.43;;;30.03;;
43070;SDS011;36278;47.952;21.714;2022-12-18T07:55:36;75.87;;;30.10;;
43070;SDS011;36278;47.952;21.714;2022-12-18T07:58:02;72.40;;;30.00;;
43070;SDS011;36278;47.952;21.714;2022-12-18T08:00:28;88.60;;;32.33;;
43070;SDS011;36278;47.952;21.714;2022-12-18T08:02:54;77.67;;;30.70;;
43070;SDS011;36278;47.952;21.714;2022-12-18T08:05:19;78.00;;;30.87;;
43070;SDS011;36278;47.952;21.714;2022-12-18T08:07:45;69.63;;;30.17;;
43070;SDS011;36278;47.952;21.714;2022-12-18T08:10:11;79.20;;;30.60;;
43070;SDS011;36278;47.952;21.714;2022-12-18T08:12:37;80.67;;;28.93;;
43070;SDS011;36278;47.952;21.714;2022-12-18T08:15:02;76.00;;;29.70;;
43070;SDS011;36278;47.952;21.714;2022-12-18T08:17:28;72.83;;;29.50;;
43070;SDS011;36278;47.952;21.714;2022-12-18T08:19:53;64.90;;;26.30;;
43070;SDS011;36278;47.952;21.714;2022-12-18T08:22:19;69.73;;;27.10;;
43070;SDS011;36278;47.952;21.714;2022-12-18T08:24:44;67.37;;;29.80;;
43070;SDS011;36278;47.952;21.714;2022-12-18T08:27:10;68.17;;;27.53;;
43070;SDS011;36278;47.952;21.714;2022-12-18T08:29:35;70.73;;;27.20;;
43070;SDS011;36278;47.952;21.714;2022-12-18T08:32:00;66.37;;;27.50;;
43070;SDS011;36278;47.952;21.714;2022-12-18T08:34:26;68.60;;;26.77;;
43070;SDS011;36278;47.952;21.714;2022-12-18T08:36:51;69.90;;;27.50;;
43070;SDS011;36278;47.952;21.714;2022-12-18T08:39:17;60.90;;;27.20;;
43070;SDS011;36278;47.952;21.714;2022-12-18T08:41:42;69.80;;;29.93;;
43070;SDS011;36278;47.952;21.714;2022-12-18T08:44:28;66.47;;;29.00;;
43070;SDS011;36278;47.952;21.714;2022-12-18T08:47:02;68.90;;;29.47;;
43070;SDS011;36278;47.952;21.714;2022-12-18T08:49:28;63.87;;;28.40;;
43070;SDS011;36278;47.952;21.714;2022-12-18T08:51:54;61.57;;;27.00;;
43070;SDS011;36278;47.952;21.714;2022-12-18T08:54:22;63.13;;;26.67;;
43070;SDS011;36278;47.952;21.714;2022-12-18T08:56:48;62.33;;;26.00;;
43070;SDS011;36278;47.952;21.714;2022-12-18T08:59:14;62.80;;;27.77;;
43070;SDS011;36278;47.952;21.714;2022-12-18T09:01:41;63.13;;;27.40;;
43070;SDS011;36278;47.952;21.714;2022-12-18T09:04:07;59.80;;;26.10;;
43070;SDS011;36278;47.952;21.714;2022-12-18T09:06:34;65.27;;;26.43;;
43070;SDS011;36278;47.952;21.714;2022-12-18T09:08:59;59.47;;;25.93;;
43070;SDS011;36278;47.952;21.714;2022-12-18T09:11:25;59.47;;;25.90;;
43070;SDS011;36278;47.952;21.714;2022-12-18T09:13:52;55.90;;;25.40;;
43070;SDS011;36278;47.952;21.714;2022-12-18T09:16:19;57.87;;;26.13;;
43070;SDS011;36278;47.952;21.714;2022-12-18T09:18:45;56.20;;;23.23;;
43070;SDS011;36278;47.952;21.714;2022-12-18T09:21:12;57.47;;;25.50;;
43070;SDS011;36278;47.952;21.714;2022-12-18T09:23:39;54.20;;;25.23;;
43070;SDS011;36278;47.952;21.714;2022-12-18T09:26:05;57.80;;;24.70;;
43070;SDS011;36278;47.952;21.714;2022-12-18T09:28:31;52.67;;;24.23;;
43070;SDS011;36278;47.952;21.714;2022-12-18T09:30:56;55.27;;;25.20;;
43070;SDS011;36278;47.952;21.714;2022-12-18T09:33:22;57.73;;;24.63;;
43070;SDS011;36278;47.952;21.714;2022-12-18T09:35:47;54.57;;;23.23;;
43070;SDS011;36278;47.952;21.714;2022-12-18T09:38:15;53.30;;;25.90;;
43070;SDS011;36278;47.952;21.714;2022-12-18T09:40:47;51.73;;;24.00;;
43070;SDS011;36278;47.952;21.714;2022-12-18T09:43:17;57.13;;;23.95;;
43070;SDS011;36278;47.952;21.714;2022-12-18T09:45:51;49.93;;;23.57;;
43070;SDS011;36278;47.952;21.714;2022-12-18T09:48:34;51.13;;;23.90;;
43070;SDS011;36278;47.952;21.714;2022-12-18T09:51:49;52.30;;;24.27;;
43070;SDS011;36278;47.952;21.714;2022-12-18T09:54:05;48.03;;;22.33;;
43070;SDS011;36278;47.952;21.714;2022-12-18T09:56:38;56.13;;;23.93;;
43070;SDS011;36278;47.952;21.714;2022-12-18T09:59:09;53.90;;;24.17;;
43070;SDS011;36278;47.952;21.714;2022-12-18T10:01:45;53.00;;;23.20;;
43070;SDS011;36278;47.952;21.714;2022-12-18T10:04:10;59.27;;;26.53;;
43070;SDS011;36278;47.952;21.714;2022-12-18T10:09:20;57.73;;;25.83;;
43070;SDS011;36278;47.952;21.714;2022-12-18T10:11:58;51.50;;;23.23;;
43070;SDS011;36278;47.952;21.714;2022-12-18T10:19:55;53.93;;;23.97;;
43070;SDS011;36278;47.952;21.714;2022-12-18T10:24:54;55.67;;;24.87;;
43070;SDS011;36278;47.952;21.714;2022-12-18T10:27:27;53.37;;;24.30;;
43070;SDS011;36278;47.952;21.714;2022-12-18T10:29:54;54.00;;;24.57;;
43070;SDS011;36278;47.952;21.714;2022-12-18T10:32:23;55.60;;;24.03;;
43070;SDS011;36278;47.952;21.714;2022-12-18T10:34:54;59.07;;;24.97;;
43070;SDS011;36278;47.952;21.714;2022-12-18T10:37:23;50.60;;;23.40;;
43070;SDS011;36278;47.952;21.714;2022-12-18T10:42:39;51.93;;;23.00;;
43070;SDS011;36278;47.952;21.714;2022-12-18T10:47:41;54.70;;;23.57;;
43070;SDS011;36278;47.952;21.714;2022-12-18T10:50:51;48.27;;;22.43;;
43070;SDS011;36278;47.952;21.714;2022-12-18T10:53:00;53.33;;;25.10;;
43070;SDS011;36278;47.952;21.714;2022-12-18T10:55:31;49.20;;;22.50;;
43070;SDS011;36278;47.952;21.714;2022-12-18T10:58:42;51.70;;;24.27;;
43070;SDS011;36278;47.952;21.714;2022-12-18T11:03:46;50.88;;;23.05;;
43070;SDS011;36278;47.952;21.714;2022-12-18T11:06:24;50.47;;;23.40;;
43070;SDS011;36278;47.952;21.714;2022-12-18T11:11:27;45.57;;;22.43;;
43070;SDS011;36278;47.952;21.714;2022-12-18T11:16:22;49.00;;;23.73;;
43070;SDS011;36278;47.952;21.714;2022-12-18T11:18:48;54.33;;;23.83;;
43070;SDS011;36278;47.952;21.714;2022-12-18T11:21:14;50.43;;;23.93;;
43070;SDS011;36278;47.952;21.714;2022-12-18T11:23:50;51.67;;;23.73;;
43070;SDS011;36278;47.952;21.714;2022-12-18T11:26:16;53.57;;;24.57;;
43070;SDS011;36278;47.952;21.714;2022-12-18T11:31:25;51.33;;;23.65;;
43070;SDS011;36278;47.952;21.714;2022-12-18T11:34:07;50.70;;;23.63;;
43070;SDS011;36278;47.952;21.714;2022-12-18T11:36:40;53.40;;;25.23;;
43070;SDS011;36278;47.952;21.714;2022-12-18T11:39:51;52.23;;;23.20;;
43070;SDS011;36278;47.952;21.714;2022-12-18T11:42:10;53.00;;;25.47;;
43070;SDS011;36278;47.952;21.714;2022-12-18T11:44:55;50.00;;;23.17;;
43070;SDS011;36278;47.952;21.714;2022-12-18T11:51:11;52.53;;;24.25;;
43070;SDS011;36278;47.952;21.714;2022-12-18T11:53:34;52.13;;;24.53;;
43070;SDS011;36278;47.952;21.714;2022-12-18T11:58:54;50.33;;;24.40;;
43070;SDS011;36278;47.952;21.714;2022-12-18T12:12:23;52.40;;;24.70;;
43070;SDS011;36278;47.952;21.714;2022-12-18T12:18:00;50.70;;;24.30;;
43070;SDS011;36278;47.952;21.714;2022-12-18T12:20:39;44.67;;;23.00;;
43070;SDS011;36278;47.952;21.714;2022-12-18T12:23:19;56.67;;;27.13;;
43070;SDS011;36278;47.952;21.714;2022-12-18T12:26:38;55.90;;;24.88;;
43070;SDS011;36278;47.952;21.714;2022-12-18T12:34:36;47.83;;;25.13;;
43070;SDS011;36278;47.952;21.714;2022-12-18T12:39:37;48.37;;;25.20;;
43070;SDS011;36278;47.952;21.714;2022-12-18T12:42:20;51.23;;;25.23;;
43070;SDS011;36278;47.952;21.714;2022-12-18T12:45:11;53.77;;;26.03;;
43070;SDS011;36278;47.952;21.714;2022-12-18T12:47:43;51.07;;;25.27;;
43070;SDS011;36278;47.952;21.714;2022-12-18T12:50:13;49.23;;;24.60;;
43070;SDS011;36278;47.952;21.714;2022-12-18T12:52:49;52.90;;;25.83;;
43070;SDS011;36278;47.952;21.714;2022-12-18T12:55:28;49.47;;;24.90;;
43070;SDS011;36278;47.952;21.714;2022-12-18T13:03:36;52.15;;;27.35;;
43070;SDS011;36278;47.952;21.714;2022-12-18T13:06:08;56.17;;;25.67;;
43070;SDS011;36278;47.952;21.714;2022-12-18T13:08:55;50.80;;;25.97;;
43070;SDS011;36278;47.952;21.714;2022-12-18T13:11:42;53.33;;;25.47;;
43070;SDS011;36278;47.952;21.714;2022-12-18T13:20:06;51.63;;;25.90;;
43070;SDS011;36278;47.952;21.714;2022-12-18T13:22:46;50.33;;;25.40;;
43070;SDS011;36278;47.952;21.714;2022-12-18T13:28:15;52.90;;;26.07;;
43070;SDS011;36278;47.952;21.714;2022-12-18T13:30:46;52.27;;;24.73;;
43070;SDS011;36278;47.952;21.714;2022-12-18T13:40:56;53.97;;;24.60;;
43070;SDS011;36278;47.952;21.714;2022-12-18T13:43:29;52.83;;;25.37;;
43070;SDS011;36278;47.952;21.714;2022-12-18T13:45:59;53.97;;;26.42;;
43070;SDS011;36278;47.952;21.714;2022-12-18T13:48:25;55.70;;;25.80;;
43070;SDS011;36278;47.952;21.714;2022-12-18T13:51:13;60.03;;;27.73;;
43070;SDS011;36278;47.952;21.714;2022-12-18T13:53:43;56.70;;;27.57;;
43070;SDS011;36278;47.952;21.714;2022-12-18T13:56:28;60.03;;;28.40;;
43070;SDS011;36278;47.952;21.714;2022-12-18T13:59:15;53.40;;;26.73;;
43070;SDS011;36278;47.952;21.714;2022-12-18T14:01:45;51.57;;;26.67;;
43070;SDS011;36278;47.952;21.714;2022-12-18T14:04:18;51.80;;;26.17;;
43070;SDS011;36278;47.952;21.714;2022-12-18T14:07:01;54.90;;;27.23;;
43070;SDS011;36278;47.952;21.714;2022-12-18T14:09:30;52.33;;;26.43;;
43070;SDS011;36278;47.952;21.714;2022-12-18T14:12:00;50.80;;;25.00;;
43070;SDS011;36278;47.952;21.714;2022-12-18T14:14:47;56.27;;;26.73;;
43070;SDS011;36278;47.952;21.714;2022-12-18T14:17:15;52.33;;;26.43;;
43070;SDS011;36278;47.952;21.714;2022-12-18T14:19:42;55.00;;;26.33;;
43070;SDS011;36278;47.952;21.714;2022-12-18T14:22:19;54.20;;;26.40;;
43070;SDS011;36278;47.952;21.714;2022-12-18T14:27:48;56.93;;;26.60;;
43070;SDS011;36278;47.952;21.714;2022-12-18T14:30:33;53.10;;;25.80;;
43070;SDS011;36278;47.952;21.714;2022-12-18T14:36:23;50.10;;;25.43;;
43070;SDS011;36278;47.952;21.714;2022-12-18T14:38:31;52.10;;;25.97;;
43070;SDS011;36278;47.952;21.714;2022-12-18T14:41:04;54.77;;;25.40;;
43070;SDS011;36278;47.952;21.714;2022-12-18T14:43:38;58.40;;;26.70;;
43070;SDS011;36278;47.952;21.714;2022-12-18T14:46:25;56.83;;;27.03;;
43070;SDS011;36278;47.952;21.714;2022-12-18T14:48:58;55.17;;;26.20;;
43070;SDS011;36278;47.952;21.714;2022-12-18T14:51:26;52.67;;;26.23;;
43070;SDS011;36278;47.952;21.714;2022-12-18T14:56:36;54.87;;;27.70;;
43070;SDS011;36278;47.952;21.714;2022-12-18T14:59:26;52.47;;;25.97;;
43070;SDS011;36278;47.952;21.714;2022-12-18T15:07:03;52.20;;;26.23;;
43070;SDS011;36278;47.952;21.714;2022-12-18T15:09:28;48.97;;;24.25;;
43070;SDS011;36278;47.952;21.714;2022-12-18T15:11:57;52.50;;;25.60;;
43070;SDS011;36278;47.952;21.714;2022-12-18T15:14:38;52.77;;;26.43;;
43070;SDS011;36278;47.952;21.714;2022-12-18T15:17:21;61.47;;;26.27;;
43070;SDS011;36278;47.952;21.714;2022-12-18T15:19:49;50.97;;;25.75;;
43070;SDS011;36278;47.952;21.714;2022-12-18T15:22:18;54.83;;;25.67;;
43070;SDS011;36278;47.952;21.714;2022-12-18T15:24:46;54.20;;;25.47;;
43070;SDS011;36278;47.952;21.714;2022-12-18T15:27:45;50.37;;;24.57;;
43070;SDS011;36278;47.952;21.714;2022-12-18T15:32:39;50.77;;;24.83;;
43070;SDS011;36278;47.952;21.714;2022-12-18T15:37:34;53.90;;;23.60;;
43070;SDS011;36278;47.952;21.714;2022-12-18T15:40:00;48.30;;;24.27;;
43070;SDS011;36278;47.952;21.714;2022-12-18T15:42:27;48.13;;;24.77;;
43070;SDS011;36278;47.952;21.714;2022-12-18T15:45:12;51.27;;;25.53;;
43070;SDS011;36278;47.952;21.714;2022-12-18T15:47:38;60.57;;;26.27;;
43070;SDS011;36278;47.952;21.714;2022-12-18T15:50:04;46.57;;;23.90;;
43070;SDS011;36278;47.952;21.714;2022-12-18T15:52:30;57.07;;;25.13;;
43070;SDS011;36278;47.952;21.714;2022-12-18T15:55:00;52.50;;;25.10;;
43070;SDS011;36278;47.952;21.714;2022-12-18T15:57:44;49.57;;;24.07;;
43070;SDS011;36278;47.952;21.714;2022-12-18T16:00:11;51.80;;;24.87;;
43070;SDS011;36278;47.952;21.714;2022-12-18T16:02:37;44.73;;;24.10;;
43070;SDS011;36278;47.952;21.714;2022-12-18T16:05:02;49.33;;;25.77;;
43070;SDS011;36278;47.952;21.714;2022-12-18T16:07:29;51.20;;;24.33;;
43070;SDS011;36278;47.952;21.714;2022-12-18T16:09:55;51.07;;;24.73;;
43070;SDS011;36278;47.952;21.714;2022-12-18T16:12:21;56.47;;;26.20;;
43070;SDS011;36278;47.952;21.714;2022-12-18T16:14:49;48.80;;;24.23;;
43070;SDS011;36278;47.952;21.714;2022-12-18T16:17:14;46.90;;;24.10;;
43070;SDS011;36278;47.952;21.714;2022-12-18T16:19:43;51.03;;;24.63;;
43070;SDS011;36278;47.952;21.714;2022-12-18T16:22:29;52.70;;;26.00;;
43070;SDS011;36278;47.952;21.714;2022-12-18T16:24:55;46.53;;;23.13;;
43070;SDS011;36278;47.952;21.714;2022-12-18T16:27:22;49.43;;;23.47;;
43070;SDS011;36278;47.952;21.714;2022-12-18T16:29:48;48.53;;;25.17;;
43070;SDS011;36278;47.952;21.714;2022-12-18T16:32:15;50.03;;;24.43;;